Time;durP1;ratioP1;P1;durP2;ratioP2;P2;SDS_P1;SDS_P2;PMS_P1;PMS_P2;Temp;Humidity;BMP_temperature;BMP_pressure;BME280_temperature;BME280_humidity;BME280_pressure;Samples;Min_cycle;Max_cycle;Signal;HPM_P1;HPM_P2
2021/10/24 00:02:14;;;;;;;15.68;8.30;;;6.70;99.90;;;;;;5016887;28;20232;-81
2021/10/24 00:04:41;;;;;;;10.00;7.20;;;6.70;99.90;;;;;;5016813;28;20684;-81
2021/10/24 00:07:08;;;;;;;11.35;7.25;;;6.60;99.90;;;;;;5016962;28;20247;-81
2021/10/24 00:09:34;;;;;;;9.00;6.38;;;6.50;99.90;;;;;;5015813;28;20686;-81
2021/10/24 00:12:01;;;;;;;13.00;7.43;;;6.60;99.90;;;;;;5015491;28;20701;-81
2021/10/24 00:14:28;;;;;;;8.90;6.32;;;6.50;99.90;;;;;;5015795;28;20595;-80
2021/10/24 00:16:57;;;;;;;13.25;7.75;;;6.30;99.90;;;;;;5017286;28;20215;-81
2021/10/24 00:19:24;;;;;;;11.70;6.60;;;6.20;99.90;;;;;;5017433;28;20212;-81
2021/10/24 00:21:51;;;;;;;10.70;8.02;;;6.30;99.90;;;;;;5017450;28;20235;-80
2021/10/24 00:24:18;;;;;;;13.85;6.72;;;6.40;99.90;;;;;;5017376;28;20215;-81
2021/10/24 00:26:45;;;;;;;13.35;7.20;;;6.50;99.90;;;;;;5017558;28;20668;-81
2021/10/24 00:29:12;;;;;;;11.32;6.68;;;6.20;99.90;;;;;;5018202;28;20290;-80
2021/10/24 00:31:39;;;;;;;11.50;7.63;;;6.20;99.90;;;;;;5018408;28;20646;-80
2021/10/24 00:34:07;;;;;;;10.48;7.03;;;6.00;99.90;;;;;;5017778;28;20212;-80
2021/10/24 00:36:34;;;;;;;14.77;7.57;;;6.00;99.90;;;;;;5022316;28;20208;-80
2021/10/24 00:39:01;;;;;;;11.27;7.05;;;6.20;99.90;;;;;;5023304;28;20208;-80
2021/10/24 00:41:30;;;;;;;10.98;6.55;;;5.90;99.90;;;;;;5022209;28;20267;-80
2021/10/24 00:43:57;;;;;;;9.10;6.43;;;6.10;99.90;;;;;;5022471;28;20192;-80
2021/10/24 00:46:24;;;;;;;8.93;6.47;;;5.90;99.90;;;;;;5023344;28;20339;-80
2021/10/24 00:48:51;;;;;;;10.20;6.38;;;5.90;99.90;;;;;;5023478;28;20279;-81
2021/10/24 00:51:19;;;;;;;8.32;5.95;;;6.00;99.90;;;;;;5023682;28;20704;-81
2021/10/24 00:53:47;;;;;;;9.93;6.68;;;6.00;99.90;;;;;;5025074;28;20673;-80
2021/10/24 00:56:14;;;;;;;12.98;6.82;;;6.10;99.90;;;;;;5030442;28;20212;-81
2021/10/24 00:58:42;;;;;;;11.85;6.35;;;6.00;99.90;;;;;;5024411;28;20310;-80
2021/10/24 01:01:09;;;;;;;11.25;6.32;;;6.10;99.90;;;;;;5024103;28;20205;-80
2021/10/24 01:03:37;;;;;;;12.45;7.15;;;6.10;99.90;;;;;;5029193;28;20216;-81
2021/10/24 01:06:04;;;;;;;8.63;5.80;;;6.10;99.90;;;;;;5026194;28;20212;-80
2021/10/24 01:08:33;;;;;;;11.57;6.22;;;5.90;99.90;;;;;;5026199;28;20216;-80
2021/10/24 01:11:00;;;;;;;9.32;6.60;;;5.80;99.90;;;;;;5024579;28;20645;-79
2021/10/24 01:13:27;;;;;;;9.68;6.10;;;5.90;99.90;;;;;;5024180;28;20286;-80
2021/10/24 01:16:09;;;;;;;10.48;6.22;;;5.80;99.90;;;;;;5025672;28;20208;-81
2021/10/24 01:18:36;;;;;;;10.20;6.07;;;5.70;99.90;;;;;;5026221;28;20208;-79
2021/10/24 01:21:04;;;;;;;10.00;5.95;;;5.90;99.90;;;;;;5026473;28;20217;-80
2021/10/24 01:23:31;;;;;;;10.15;6.07;;;5.90;99.90;;;;;;5022779;28;20239;-79
2021/10/24 01:25:59;;;;;;;11.10;7.03;;;5.80;99.90;;;;;;5022505;28;20208;-80
2021/10/24 01:28:26;;;;;;;10.10;6.30;;;5.90;99.90;;;;;;5022475;28;20204;-80
2021/10/24 01:30:54;;;;;;;11.70;6.35;;;5.90;99.90;;;;;;5026009;28;20235;-82
2021/10/24 01:33:21;;;;;;;13.57;6.55;;;5.80;99.90;;;;;;5026792;28;20259;-82
2021/10/24 01:35:52;;;;;;;9.25;5.55;;;5.70;99.90;;;;;;5024857;28;20291;-80
2021/10/24 01:38:20;;;;;;;14.75;6.70;;;5.70;99.90;;;;;;5023136;28;20212;-80
2021/10/24 01:40:47;;;;;;;11.93;6.30;;;5.80;99.90;;;;;;5023659;28;20283;-79
2021/10/24 01:43:14;;;;;;;9.13;5.60;;;5.50;99.90;;;;;;5022993;28;20240;-78
2021/10/24 01:45:41;;;;;;;11.57;5.90;;;5.80;99.90;;;;;;5023037;28;20300;-80
2021/10/24 01:48:08;;;;;;;11.35;5.70;;;5.70;99.90;;;;;;5023750;28;20599;-81
2021/10/24 01:50:35;;;;;;;11.68;6.63;;;5.70;99.90;;;;;;5023155;28;20237;-82
2021/10/24 01:53:02;;;;;;;9.50;6.63;;;5.50;99.90;;;;;;5021630;28;20231;-81
2021/10/24 01:55:32;;;;;;;11.77;6.90;;;5.70;99.90;;;;;;5021028;28;20644;-81
2021/10/24 01:57:59;;;;;;;10.23;5.93;;;5.70;99.90;;;;;;5021293;28;20219;-83
2021/10/24 02:00:26;;;;;;;8.85;6.10;;;5.60;99.90;;;;;;5020484;28;20255;-80
2021/10/24 02:02:53;;;;;;;11.82;6.68;;;5.60;99.90;;;;;;5017321;28;20227;-80
2021/10/24 02:05:21;;;;;;;11.20;6.15;;;5.50;99.90;;;;;;5018569;28;20211;-80
2021/10/24 02:07:48;;;;;;;9.77;6.85;;;5.60;99.90;;;;;;5018539;28;20744;-80
2021/10/24 02:10:17;;;;;;;9.18;6.35;;;5.30;99.90;;;;;;5017185;28;20315;-80
2021/10/24 02:12:46;;;;;;;9.63;6.13;;;5.40;99.90;;;;;;5021455;28;20227;-81
2021/10/24 02:15:13;;;;;;;8.85;5.75;;;5.50;99.90;;;;;;5018266;28;20207;-81
2021/10/24 02:17:40;;;;;;;10.52;6.10;;;5.40;99.90;;;;;;5018401;28;20532;-81
2021/10/24 02:20:09;;;;;;;9.80;5.72;;;5.30;99.90;;;;;;5017440;28;20213;-80
2021/10/24 02:22:37;;;;;;;7.90;4.88;;;5.30;99.90;;;;;;5017480;28;20223;-80
2021/10/24 02:25:08;;;;;;;9.00;4.65;;;5.30;99.90;;;;;;5017319;28;20220;-81
2021/10/24 02:27:35;;;;;;;8.80;4.85;;;5.40;99.90;;;;;;5017398;28;20580;-81
2021/10/24 02:30:03;;;;;;;9.50;5.40;;;5.20;99.90;;;;;;5017455;28;20235;-80
2021/10/24 02:32:30;;;;;;;10.30;5.30;;;5.20;99.90;;;;;;5017429;28;20231;-81
2021/10/24 02:34:57;;;;;;;12.05;5.72;;;5.20;99.90;;;;;;5017161;28;20212;-80
2021/10/24 02:37:24;;;;;;;9.95;6.30;;;5.40;99.90;;;;;;5021573;28;20314;-80
2021/10/24 02:39:51;;;;;;;10.63;5.88;;;5.20;99.90;;;;;;5023654;28;20217;-80
2021/10/24 02:42:18;;;;;;;9.80;5.55;;;5.40;99.90;;;;;;5027720;28;20311;-80
2021/10/24 02:44:44;;;;;;;7.50;5.18;;;5.40;99.90;;;;;;5024250;28;20239;-81
2021/10/24 02:47:13;;;;;;;8.63;5.07;;;5.30;99.90;;;;;;5017586;28;20294;-80
2021/10/24 02:49:40;;;;;;;8.63;5.80;;;5.40;99.90;;;;;;5016842;28;20218;-81
2021/10/24 02:52:07;;;;;;;9.48;5.10;;;5.20;99.90;;;;;;5017387;28;20253;-80
2021/10/24 02:54:33;;;;;;;8.70;4.80;;;5.40;99.90;;;;;;5017101;28;20220;-80
2021/10/24 02:57:02;;;;;;;7.00;5.45;;;5.10;99.90;;;;;;5018419;28;20632;-80
2021/10/24 02:59:29;;;;;;;10.55;6.00;;;5.20;99.90;;;;;;5016921;28;20207;-80
2021/10/24 03:01:56;;;;;;;10.20;6.15;;;5.00;99.90;;;;;;5016987;28;20300;-80
2021/10/24 03:04:24;;;;;;;10.27;5.95;;;5.10;99.90;;;;;;5016661;28;20211;-80
2021/10/24 03:06:51;;;;;;;11.45;5.45;;;5.20;99.90;;;;;;5017423;28;20207;-80
2021/10/24 03:09:18;;;;;;;10.18;5.68;;;5.10;99.90;;;;;;5017033;28;20279;-80
2021/10/24 03:11:45;;;;;;;10.07;6.20;;;5.20;99.90;;;;;;5016616;28;20235;-80
2021/10/24 03:14:12;;;;;;;11.10;5.57;;;5.10;99.90;;;;;;5028916;28;20303;-80
2021/10/24 03:16:39;;;;;;;12.32;6.00;;;5.20;99.90;;;;;;5030710;28;20207;-80
2021/10/24 03:19:06;;;;;;;8.60;5.32;;;5.20;99.90;;;;;;5023411;28;20222;-80
2021/10/24 03:21:34;;;;;;;8.63;5.88;;;5.20;99.90;;;;;;5028344;28;20292;-80
2021/10/24 03:24:01;;;;;;;9.75;6.20;;;5.00;99.90;;;;;;5021513;28;20207;-80
2021/10/24 03:26:31;;;;;;;9.98;6.68;;;4.90;99.90;;;;;;5021580;28;20678;-79
2021/10/24 03:28:58;;;;;;;8.02;4.82;;;4.80;99.90;;;;;;5021943;28;20214;-79
2021/10/24 03:31:25;;;;;;;9.73;5.57;;;4.80;99.90;;;;;;5017457;28;20228;-80
2021/10/24 03:33:52;;;;;;;7.40;5.35;;;5.00;99.90;;;;;;5019871;28;20250;-80
2021/10/24 03:36:19;;;;;;;11.60;6.07;;;5.10;99.90;;;;;;5021437;28;20290;-80
2021/10/24 03:38:47;;;;;;;7.82;5.13;;;4.90;99.90;;;;;;5021945;28;20575;-80
2021/10/24 03:41:14;;;;;;;10.95;5.50;;;5.00;99.90;;;;;;5024330;28;20214;-80
2021/10/24 03:43:41;;;;;;;11.25;6.22;;;5.10;99.90;;;;;;5020407;28;20219;-79
2021/10/24 03:46:08;;;;;;;14.50;6.47;;;4.90;99.90;;;;;;5048126;23;20306;-81
2021/10/24 03:48:35;;;;;;;8.63;5.70;;;4.70;99.90;;;;;;5017295;28;20208;-82
2021/10/24 03:51:02;;;;;;;9.10;4.57;;;4.80;99.90;;;;;;5017739;28;20231;-82
2021/10/24 03:53:29;;;;;;;8.48;4.95;;;4.80;99.90;;;;;;5018163;28;20208;-81
2021/10/24 03:55:57;;;;;;;9.20;6.05;;;4.70;99.90;;;;;;5016594;28;20238;-82
2021/10/24 03:58:24;;;;;;;11.45;5.95;;;4.70;99.90;;;;;;5016970;28;20222;-82
2021/10/24 04:00:51;;;;;;;12.00;5.75;;;4.90;99.90;;;;;;5017914;28;20214;-82
2021/10/24 04:03:17;;;;;;;7.93;5.68;;;4.80;99.90;;;;;;5017157;28;20599;-82
2021/10/24 04:05:48;;;;;;;7.82;4.65;;;4.70;99.90;;;;;;5027267;28;20238;-81
2021/10/24 04:08:15;;;;;;;6.72;5.05;;;4.70;99.90;;;;;;5020902;28;20207;-82
2021/10/24 04:10:42;;;;;;;10.43;6.00;;;4.70;99.90;;;;;;5019236;28;20215;-82
2021/10/24 04:13:10;;;;;;;9.38;5.00;;;4.70;99.90;;;;;;5021386;28;20243;-82
2021/10/24 04:15:37;;;;;;;8.45;5.65;;;4.60;99.90;;;;;;5021158;28;20235;-82
2021/10/24 04:18:03;;;;;;;9.32;5.55;;;4.70;99.90;;;;;;5020556;28;20262;-82
2021/10/24 04:20:30;;;;;;;7.68;4.85;;;4.60;99.90;;;;;;5020674;28;20306;-81
2021/10/24 04:22:57;;;;;;;10.68;5.70;;;4.70;99.90;;;;;;5021310;28;20295;-82
2021/10/24 04:25:25;;;;;;;11.40;5.60;;;4.80;99.90;;;;;;5020427;28;20712;-82
2021/10/24 04:27:52;;;;;;;11.18;4.93;;;4.80;99.90;;;;;;5021997;28;20222;-82
2021/10/24 04:30:21;;;;;;;7.95;5.20;;;4.60;99.90;;;;;;5021152;28;20203;-82
2021/10/24 04:32:48;;;;;;;7.95;4.70;;;4.80;99.90;;;;;;5021901;28;20208;-83
2021/10/24 04:35:16;;;;;;;10.35;5.03;;;4.90;99.90;;;;;;5021941;28;20211;-82
2021/10/24 04:37:43;;;;;;;9.95;5.20;;;4.80;99.90;;;;;;5024139;28;20218;-81
2021/10/24 04:40:11;;;;;;;8.65;5.13;;;4.70;99.90;;;;;;5027963;28;20207;-82
2021/10/24 04:42:38;;;;;;;11.63;5.88;;;4.80;99.90;;;;;;5021300;28;20263;-82
2021/10/24 04:45:06;;;;;;;9.02;5.57;;;4.60;99.90;;;;;;5024808;28;20294;-81
2021/10/24 04:47:35;;;;;;;12.20;5.10;;;4.60;99.90;;;;;;5021221;28;20225;-83
2021/10/24 04:50:01;;;;;;;7.32;4.95;;;4.60;99.90;;;;;;5019570;28;20272;-81
2021/10/24 04:52:29;;;;;;;8.18;5.28;;;4.40;99.90;;;;;;5019596;28;20314;-80
2021/10/24 04:54:55;;;;;;;8.63;5.57;;;4.70;99.90;;;;;;5018715;28;20569;-77
2021/10/24 04:57:22;;;;;;;9.30;5.45;;;4.60;99.90;;;;;;5018123;28;20310;-80
2021/10/24 04:59:49;;;;;;;8.63;5.18;;;4.70;99.90;;;;;;5026850;28;20212;-79
2021/10/24 05:02:16;;;;;;;7.50;5.30;;;4.50;99.90;;;;;;5029087;28;20553;-79
2021/10/24 05:04:44;;;;;;;9.20;5.38;;;4.70;99.90;;;;;;5023498;28;20210;-79
2021/10/24 05:07:11;;;;;;;7.72;5.38;;;4.60;99.90;;;;;;5026343;28;20318;-79
2021/10/24 05:09:38;;;;;;;9.90;5.80;;;4.70;99.90;;;;;;5027073;28;20291;-80
2021/10/24 05:12:05;;;;;;;9.57;5.97;;;4.70;99.90;;;;;;5021911;28;20287;-79
2021/10/24 05:14:32;;;;;;;9.02;6.05;;;4.60;99.90;;;;;;5028104;28;20271;-79
2021/10/24 05:16:59;;;;;;;11.45;5.80;;;4.60;99.90;;;;;;5029494;28;20279;-80
2021/10/24 05:19:26;;;;;;;8.43;6.10;;;4.40;99.90;;;;;;5018748;28;20218;-81
2021/10/24 05:21:54;;;;;;;8.45;5.85;;;4.50;99.90;;;;;;5017703;28;20192;-80
2021/10/24 05:24:21;;;;;;;9.02;6.65;;;4.60;99.90;;;;;;5018452;28;20294;-80
2021/10/24 05:26:47;;;;;;;9.50;5.35;;;4.50;99.90;;;;;;5017918;28;20231;-79
2021/10/24 05:29:14;;;;;;;8.85;6.38;;;4.60;99.90;;;;;;5018704;28;20303;-80
2021/10/24 05:31:41;;;;;;;9.20;6.00;;;4.50;99.90;;;;;;5018508;28;20243;-80
2021/10/24 05:34:08;;;;;;;11.07;6.50;;;4.70;99.90;;;;;;5017556;28;20209;-80
2021/10/24 05:36:35;;;;;;;10.60;6.07;;;4.60;99.90;;;;;;5017610;28;20254;-80
2021/10/24 05:39:03;;;;;;;9.20;5.80;;;4.70;99.90;;;;;;5018175;28;20298;-80
2021/10/24 05:41:31;;;;;;;9.38;6.00;;;4.50;99.90;;;;;;5018492;28;20681;-80
2021/10/24 05:43:58;;;;;;;16.77;6.60;;;4.50;99.90;;;;;;5021077;28;20207;-79
2021/10/24 05:46:25;;;;;;;10.02;5.55;;;4.40;99.90;;;;;;5021341;28;20255;-80
2021/10/24 05:48:52;;;;;;;7.80;5.55;;;4.40;99.90;;;;;;5018145;28;20299;-80
2021/10/24 05:51:19;;;;;;;9.55;6.00;;;4.60;99.90;;;;;;5017829;28;20229;-81
2021/10/24 05:53:46;;;;;;;13.48;5.65;;;4.60;99.90;;;;;;5018307;28;20280;-79
2021/10/24 05:56:15;;;;;;;10.10;6.10;;;4.60;99.90;;;;;;5018003;28;20226;-80
2021/10/24 05:58:43;;;;;;;8.32;5.75;;;4.60;99.90;;;;;;5022570;28;20260;-80
2021/10/24 06:01:10;;;;;;;8.32;5.35;;;4.60;99.90;;;;;;5027464;28;20205;-80
2021/10/24 06:03:36;;;;;;;10.30;5.55;;;4.50;99.90;;;;;;5019453;28;20558;-80
2021/10/24 06:06:03;;;;;;;11.93;7.10;;;4.40;99.90;;;;;;5018883;28;20310;-80
2021/10/24 06:08:31;;;;;;;10.15;5.57;;;4.40;99.90;;;;;;5021643;28;20698;-80
2021/10/24 06:11:13;;;;;;;8.57;5.00;;;4.40;99.90;;;;;;5026582;28;20208;-80
2021/10/24 06:13:41;;;;;;;9.38;5.22;;;4.40;99.90;;;;;;5023290;28;20617;-80
2021/10/24 06:16:08;;;;;;;10.20;6.70;;;4.40;99.90;;;;;;5025476;28;20255;-81
2021/10/24 06:18:35;;;;;;;9.98;4.97;;;4.60;99.90;;;;;;5020433;28;20290;-82
2021/10/24 06:21:02;;;;;;;11.63;4.55;;;4.60;99.90;;;;;;5019616;28;20680;-80
2021/10/24 06:23:29;;;;;;;9.75;4.65;;;4.40;99.90;;;;;;5028032;28;20211;-81
2021/10/24 06:25:56;;;;;;;9.13;5.50;;;4.50;99.90;;;;;;5019336;28;20233;-81
2021/10/24 06:28:23;;;;;;;9.80;5.63;;;4.50;99.90;;;;;;5019595;28;20253;-81
2021/10/24 06:30:51;;;;;;;10.57;5.88;;;4.30;99.90;;;;;;5021412;28;20207;-81
2021/10/24 06:33:18;;;;;;;9.18;5.63;;;4.10;99.90;;;;;;5016608;28;20258;-81
2021/10/24 06:35:45;;;;;;;9.55;5.82;;;4.20;99.90;;;;;;5018772;28;20662;-81
2021/10/24 06:38:12;;;;;;;10.20;6.05;;;4.40;99.90;;;;;;5018037;28;20249;-81
2021/10/24 06:40:40;;;;;;;6.43;5.00;;;4.30;99.90;;;;;;5018414;28;20214;-81
2021/10/24 06:43:07;;;;;;;9.02;5.47;;;4.30;99.90;;;;;;5018009;28;20279;-82
2021/10/24 06:45:34;;;;;;;9.57;5.85;;;4.50;99.90;;;;;;5018348;28;20326;-80
2021/10/24 06:48:04;;;;;;;12.40;5.68;;;4.30;99.90;;;;;;5017714;28;20196;-81
2021/10/24 06:50:31;;;;;;;12.27;6.03;;;4.10;99.90;;;;;;5017869;28;20211;-81
2021/10/24 06:52:58;;;;;;;11.32;6.40;;;4.20;99.90;;;;;;5017784;28;20278;-81
2021/10/24 06:55:25;;;;;;;7.88;5.30;;;4.40;99.90;;;;;;5018329;28;20218;-79
2021/10/24 06:57:53;;;;;;;10.95;6.35;;;4.50;99.90;;;;;;5016504;28;20704;-80
2021/10/24 07:00:21;;;;;;;12.10;6.20;;;4.30;99.90;;;;;;5015897;28;20199;-80
2021/10/24 07:02:48;;;;;;;11.30;5.80;;;4.50;99.90;;;;;;5016511;28;20607;-80
2021/10/24 07:05:17;;;;;;;9.38;6.28;;;4.30;99.90;;;;;;5017525;28;20647;-80
2021/10/24 07:07:44;;;;;;;9.77;7.00;;;4.70;99.90;;;;;;5016595;28;20204;-81
2021/10/24 07:10:11;;;;;;;7.63;5.32;;;4.80;99.90;;;;;;5017507;28;20271;-81
2021/10/24 07:12:38;;;;;;;12.13;6.05;;;4.70;99.90;;;;;;5018375;28;20223;-81
2021/10/24 07:15:07;;;;;;;8.30;5.32;;;4.90;99.90;;;;;;5017742;28;20205;-81
2021/10/24 07:17:37;;;;;;;11.65;6.13;;;4.80;99.90;;;;;;5018062;28;20298;-84
2021/10/24 07:20:05;;;;;;;8.63;5.82;;;4.90;99.90;;;;;;5019479;28;20204;-83
2021/10/24 07:22:33;;;;;;;10.80;6.55;;;4.90;99.90;;;;;;5026363;28;20298;-82
2021/10/24 07:25:00;;;;;;;8.77;5.82;;;5.10;99.90;;;;;;5027354;28;20677;-79
2021/10/24 07:27:27;;;;;;;10.05;6.75;;;5.40;99.90;;;;;;5017158;28;20239;-79
2021/10/24 07:29:54;;;;;;;12.25;6.82;;;5.40;99.90;;;;;;5017350;28;20207;-79
2021/10/24 07:32:22;;;;;;;16.27;6.40;;;5.30;99.90;;;;;;5028029;28;20251;-81
2021/10/24 07:34:49;;;;;;;18.08;10.43;;;5.30;99.90;;;;;;5019300;28;20207;-82
2021/10/24 07:37:16;;;;;;;14.57;6.80;;;5.40;99.90;;;;;;5017457;28;20227;-84
2021/10/24 07:39:45;;;;;;;12.25;7.30;;;5.40;99.90;;;;;;5017086;28;20216;-81
2021/10/24 07:42:12;;;;;;;9.90;6.80;;;5.50;99.90;;;;;;5016587;28;20261;-81
2021/10/24 07:44:39;;;;;;;10.32;6.72;;;5.70;99.90;;;;;;5019640;28;20235;-81
2021/10/24 07:47:06;;;;;;;11.82;6.57;;;5.80;99.90;;;;;;5020906;28;20815;-83
2021/10/24 07:49:33;;;;;;;9.73;7.45;;;5.90;99.90;;;;;;5021275;28;20269;-83
2021/10/24 07:52:00;;;;;;;16.58;7.65;;;6.00;99.90;;;;;;5022013;28;20256;-83
2021/10/24 07:54:27;;;;;;;11.07;6.28;;;6.00;99.90;;;;;;5020788;28;20234;-80
2021/10/24 07:56:55;;;;;;;11.48;6.88;;;6.20;99.90;;;;;;5022021;28;20242;-83
2021/10/24 07:59:22;;;;;;;12.95;7.40;;;6.30;99.90;;;;;;5021126;28;20219;-79
2021/10/24 08:01:49;;;;;;;12.55;6.47;;;6.40;99.90;;;;;;5020173;28;20624;-78
2021/10/24 08:04:16;;;;;;;9.43;6.40;;;6.40;99.90;;;;;;5024190;28;20240;-77
2021/10/24 08:06:43;;;;;;;10.48;7.97;;;6.50;99.90;;;;;;5031489;28;20228;-78
2021/10/24 08:09:12;;;;;;;9.65;6.25;;;6.60;99.90;;;;;;5029110;28;20212;-78
2021/10/24 08:11:39;;;;;;;11.15;7.05;;;6.80;99.90;;;;;;5028855;28;20204;-78
2021/10/24 08:14:08;;;;;;;9.52;6.65;;;6.90;99.90;;;;;;5035011;28;20564;-78
2021/10/24 08:16:36;;;;;;;7.65;5.63;;;7.10;99.90;;;;;;5027369;28;20244;-81
2021/10/24 08:19:03;;;;;;;16.55;7.03;;;7.00;99.90;;;;;;5020844;28;20239;-81
2021/10/24 08:21:31;;;;;;;9.70;6.57;;;7.00;99.90;;;;;;5020036;28;20220;-86
2021/10/24 08:23:58;;;;;;;11.68;6.80;;;7.30;99.90;;;;;;5021374;28;20207;-80
2021/10/24 08:26:26;;;;;;;11.38;7.28;;;7.40;99.90;;;;;;5020276;28;20319;-80
2021/10/24 08:28:52;;;;;;;14.13;7.68;;;7.50;99.90;;;;;;5021139;28;20206;-79
2021/10/24 08:31:26;;;;;;;9.65;6.72;;;7.80;99.90;;;;;;5022160;28;20208;-79
2021/10/24 08:33:53;;;;;;;9.32;7.28;;;8.00;99.90;;;;;;5024294;28;20222;-80
2021/10/24 08:42:18;;;;;;;9.63;7.10;;;8.40;99.90;;;;;;5020433;28;20436;-81
2021/10/24 08:44:45;;;;;;;13.60;7.30;;;8.50;99.90;;;;;;5019950;28;20522;-81
2021/10/24 08:47:14;;;;;;;8.43;6.33;;;8.70;99.90;;;;;;5023868;28;20480;-82
2021/10/24 08:49:41;;;;;;;10.93;7.17;;;8.90;99.90;;;;;;5021491;28;20426;-80
2021/10/24 08:52:09;;;;;;;8.43;6.07;;;8.80;99.90;;;;;;5021336;28;20583;-80
2021/10/24 08:54:36;;;;;;;11.50;6.90;;;8.70;99.90;;;;;;5020710;28;20436;-80
2021/10/24 08:57:03;;;;;;;10.03;6.77;;;8.80;99.90;;;;;;5029416;28;20426;-79
2021/10/24 08:59:30;;;;;;;10.90;7.47;;;9.00;99.90;;;;;;5033587;28;20506;-80
2021/10/24 09:01:58;;;;;;;9.50;6.80;;;9.00;99.90;;;;;;5033624;28;20460;-79
2021/10/24 09:04:26;;;;;;;9.20;7.60;;;9.10;99.90;;;;;;5030963;28;20537;-79
2021/10/24 09:06:55;;;;;;;15.10;8.00;;;9.20;99.90;;;;;;5022951;28;20463;-80
2021/10/24 09:09:24;;;;;;;9.40;6.83;;;9.20;99.90;;;;;;5024199;28;20485;-80
2021/10/24 09:11:53;;;;;;;11.30;8.00;;;9.20;99.90;;;;;;5020792;28;20438;-79
2021/10/24 09:14:39;;;;;;;11.20;6.87;;;9.40;99.90;;;;;;5019724;28;20438;-80
2021/10/24 09:17:08;;;;;;;11.90;7.60;;;9.50;99.90;;;;;;5021322;28;20434;-80
2021/10/24 09:19:38;;;;;;;10.00;7.10;;;9.50;99.90;;;;;;5031653;28;20516;-77
2021/10/24 09:22:34;;;;;;;13.30;8.07;;;9.60;99.90;;;;;;5027277;28;20434;-79
2021/10/24 09:25:14;;;;;;;13.43;7.17;;;9.70;99.90;;;;;;5023148;28;20495;-80
2021/10/24 09:27:46;;;;;;;10.30;6.47;;;9.70;99.90;;;;;;5020100;28;20485;-80
2021/10/24 09:30:16;;;;;;;13.83;7.20;;;9.80;99.90;;;;;;5020459;28;20445;-79
2021/10/24 09:32:55;;;;;;;10.77;6.80;;;9.90;99.90;;;;;;5018502;28;20484;-79
2021/10/24 09:35:26;;;;;;;7.73;5.83;;;10.00;99.90;;;;;;5019076;28;20426;-79
2021/10/24 09:37:53;;;;;;;9.43;7.03;;;10.20;99.90;;;;;;5030066;28;20515;-78
2021/10/24 09:40:26;;;;;;;9.50;6.43;;;10.20;99.90;;;;;;5031611;28;20452;-77
2021/10/24 09:43:18;;;;;;;10.87;7.53;;;10.30;99.90;;;;;;5029946;28;20408;-80
2021/10/24 09:45:50;;;;;;;10.83;6.50;;;10.40;99.90;;;;;;5023802;28;20443;-80
2021/10/24 09:48:19;;;;;;;8.80;6.03;;;10.50;99.90;;;;;;5019653;28;20441;-79
2021/10/24 09:50:50;;;;;;;10.00;6.67;;;10.70;99.90;;;;;;5023254;28;20828;-79
2021/10/24 09:53:20;;;;;;;12.77;6.30;;;10.50;99.90;;;;;;5029962;28;20543;-81
2021/10/24 09:55:48;;;;;;;8.47;6.10;;;10.50;99.90;;;;;;5022727;28;20442;-79
2021/10/24 09:58:15;;;;;;;8.83;6.93;;;10.70;99.90;;;;;;5019975;28;20969;-80
2021/10/24 10:00:44;;;;;;;11.53;6.40;;;10.70;99.90;;;;;;5018177;28;20456;-79
2021/10/24 10:03:11;;;;;;;10.10;5.60;;;10.80;99.90;;;;;;5018403;28;20424;-80
2021/10/24 10:05:40;;;;;;;8.17;5.57;;;10.80;99.90;;;;;;5018291;28;20492;-79
2021/10/24 10:08:09;;;;;;;7.20;4.70;;;10.90;99.90;;;;;;5017781;28;20557;-80
2021/10/24 10:10:39;;;;;;;8.73;4.90;;;10.90;99.90;;;;;;5017625;28;20439;-80
2021/10/24 10:13:11;;;;;;;9.20;4.57;;;11.10;99.90;;;;;;5018172;28;20512;-80
2021/10/24 10:15:41;;;;;;;13.70;5.70;;;11.20;99.90;;;;;;5018067;28;20894;-78
2021/10/24 10:18:08;;;;;;;7.57;4.00;;;11.30;99.90;;;;;;5017490;28;20454;-79
2021/10/24 10:20:46;;;;;;;6.80;4.40;;;11.40;99.90;;;;;;5018763;28;20484;-80
2021/10/24 10:23:16;;;;;;;5.47;3.73;;;11.50;99.90;;;;;;5041907;23;20475;-79
2021/10/24 10:25:45;;;;;;;7.17;4.70;;;11.50;99.90;;;;;;5017072;28;20893;-79
2021/10/24 10:28:14;;;;;;;8.57;4.67;;;11.60;99.90;;;;;;5016960;28;20454;-80
2021/10/24 10:30:43;;;;;;;7.67;4.87;;;11.70;99.90;;;;;;5017232;28;20529;-80
2021/10/24 10:33:32;;;;;;;6.70;4.23;;;11.80;99.90;;;;;;5017543;28;20505;-79
2021/10/24 10:36:00;;;;;;;8.20;3.93;;;11.90;99.90;;;;;;5017952;28;20442;-79
2021/10/24 10:38:40;;;;;;;9.47;5.53;;;12.00;99.90;;;;;;5016588;28;20442;-80
2021/10/24 10:41:09;;;;;;;7.70;5.23;;;12.10;99.90;;;;;;5017834;28;20470;-80
2021/10/24 10:43:36;;;;;;;7.33;3.90;;;12.30;99.90;;;;;;5017409;28;20515;-80
2021/10/24 10:46:04;;;;;;;7.23;4.73;;;12.30;99.90;;;;;;5016953;28;20909;-79
2021/10/24 10:48:37;;;;;;;8.70;4.47;;;12.40;99.90;;;;;;5016959;28;20450;-79
2021/10/24 10:51:16;;;;;;;6.87;4.73;;;12.40;99.90;;;;;;5016965;28;20842;-79
2021/10/24 10:53:59;;;;;;;7.10;4.73;;;12.40;99.90;;;;;;5016764;28;20547;-79
2021/10/24 10:56:31;;;;;;;6.73;4.80;;;12.40;99.90;;;;;;5016756;28;20826;-78
2021/10/24 10:58:59;;;;;;;8.30;4.90;;;12.40;99.90;;;;;;5018967;28;20473;-78
2021/10/24 11:01:33;;;;;;;6.73;4.17;;;12.40;99.90;;;;;;5022645;28;20433;-80
2021/10/24 11:04:13;;;;;;;6.83;5.03;;;12.50;99.90;;;;;;5021569;28;20525;-80
2021/10/24 11:07:00;;;;;;;9.97;5.13;;;12.60;99.90;;;;;;5020197;28;20462;-77
2021/10/24 11:09:48;;;;;;;6.77;4.87;;;12.70;99.90;;;;;;5023711;28;20413;-78
2021/10/24 11:12:49;;;;;;;7.67;4.93;;;12.70;99.90;;;;;;5021673;28;20446;-77
2021/10/24 11:15:19;;;;;;;7.93;4.77;;;12.70;99.90;;;;;;4963452;29;20793;-80
2021/10/24 11:17:48;;;;;;;7.90;5.13;;;12.80;99.90;;;;;;4958729;28;20428;-79
2021/10/24 11:20:42;;;;;;;7.60;4.97;;;12.90;99.90;;;;;;4986320;28;20450;-79
2021/10/24 11:23:13;;;;;;;6.10;4.33;;;12.80;99.90;;;;;;5016564;28;20823;-81
2021/10/24 11:25:42;;;;;;;10.53;5.20;;;12.80;99.90;;;;;;5017376;28;20529;-77
2021/10/24 11:28:15;;;;;;;6.70;4.33;;;12.90;99.90;;;;;;5017087;28;20453;-79
2021/10/24 11:30:43;;;;;;;6.67;4.97;;;13.00;99.90;;;;;;5017401;28;20514;-79
2021/10/24 11:33:10;;;;;;;6.63;5.07;;;13.00;99.90;;;;;;5016024;28;20818;-78
2021/10/24 11:35:39;;;;;;;7.13;4.90;;;13.10;99.90;;;;;;5020888;28;20938;-80
2021/10/24 11:38:09;;;;;;;12.10;5.20;;;13.10;99.90;;;;;;5018251;28;20537;-80
2021/10/24 11:40:38;;;;;;;7.40;5.20;;;13.10;99.90;;;;;;5025088;28;20425;-82
2021/10/24 11:43:09;;;;;;;7.33;4.43;;;13.20;99.90;;;;;;5019510;28;20464;-81
2021/10/24 11:45:38;;;;;;;6.33;4.33;;;13.10;99.90;;;;;;5020202;28;20541;-81
2021/10/24 11:48:08;;;;;;;8.00;5.30;;;13.20;99.90;;;;;;5018729;28;20454;-81
2021/10/24 11:50:51;;;;;;;7.93;5.00;;;13.20;99.90;;;;;;5019085;28;20503;-80
2021/10/24 11:53:20;;;;;;;9.83;4.63;;;13.40;99.90;;;;;;5019755;28;20496;-80
2021/10/24 11:55:50;;;;;;;7.07;4.90;;;13.40;99.90;;;;;;5017218;28;20523;-79
2021/10/24 11:58:34;;;;;;;6.10;4.80;;;13.40;99.90;;;;;;5017463;28;20434;-79
2021/10/24 12:01:09;;;;;;;7.20;5.13;;;13.40;99.90;;;;;;5017141;28;20465;-79
2021/10/24 12:03:39;;;;;;;6.00;4.03;;;13.40;99.90;;;;;;5016512;28;20444;-78
2021/10/24 12:06:06;;;;;;;7.30;4.73;;;13.40;99.90;;;;;;5016558;28;20827;-79
2021/10/24 12:08:43;;;;;;;7.53;4.60;;;13.40;99.90;;;;;;5021050;28;20835;-83
2021/10/24 12:11:14;;;;;;;6.90;4.67;;;13.40;99.90;;;;;;5017416;28;20445;-80
2021/10/24 12:13:42;;;;;;;7.77;4.67;;;13.40;99.90;;;;;;5017157;28;20532;-80
2021/10/24 12:16:30;;;;;;;7.37;4.60;;;13.40;99.90;;;;;;5016311;28;20449;-79
2021/10/24 12:19:27;;;;;;;7.97;4.50;;;13.40;99.90;;;;;;5017731;28;20433;-79
2021/10/24 12:21:56;;;;;;;6.33;4.77;;;13.40;99.90;;;;;;5017961;28;20471;-81
2021/10/24 12:24:28;;;;;;;6.30;4.30;;;13.60;99.90;;;;;;5018004;28;20476;-80
2021/10/24 12:27:06;;;;;;;7.07;4.40;;;13.60;99.90;;;;;;5018238;28;20829;-81
2021/10/24 12:29:35;;;;;;;6.03;3.90;;;13.70;99.90;;;;;;5017842;28;20964;-79
2021/10/24 12:32:08;;;;;;;5.77;4.20;;;13.70;99.90;;;;;;5021805;28;20454;-81
2021/10/24 12:34:36;;;;;;;7.90;4.77;;;13.80;99.90;;;;;;5026396;28;20985;-77
2021/10/24 12:37:03;;;;;;;6.03;4.30;;;13.90;99.90;;;;;;5025768;28;20464;-83
2021/10/24 12:39:30;;;;;;;6.23;3.37;;;13.90;99.80;;;;;;5024328;28;20463;-84
2021/10/24 12:41:57;;;;;;;6.93;4.23;;;13.90;99.60;;;;;;5023657;28;20600;-81
2021/10/24 12:44:37;;;;;;;6.57;3.93;;;14.00;99.50;;;;;;5023169;28;20465;-80
2021/10/24 12:47:12;;;;;;;7.90;5.00;;;14.10;99.40;;;;;;5022329;28;20817;-80
2021/10/24 12:49:39;;;;;;;7.30;4.10;;;14.00;99.20;;;;;;5020224;28;20442;-79
2021/10/24 12:52:11;;;;;;;6.70;4.07;;;14.00;99.20;;;;;;5020571;28;20515;-79
2021/10/24 12:54:38;;;;;;;4.90;3.53;;;14.00;99.30;;;;;;5029420;28;20461;-82
2021/10/24 12:57:07;;;;;;;7.37;4.17;;;14.00;99.20;;;;;;5020867;28;20845;-82
2021/10/24 12:59:35;;;;;;;7.03;4.10;;;14.00;99.30;;;;;;5020436;28;20446;-82
2021/10/24 13:02:04;;;;;;;6.13;4.00;;;14.00;99.40;;;;;;5020625;28;20460;-82
2021/10/24 13:04:31;;;;;;;7.37;4.47;;;14.10;99.40;;;;;;5021651;28;20831;-82
2021/10/24 13:06:58;;;;;;;5.80;4.20;;;14.10;99.20;;;;;;5020479;28;20496;-82